Time;durP1;ratioP1;P1;durP2;ratioP2;P2;SDS_P1;SDS_P2;PMS_P1;PMS_P2;Temp;Humidity;BMP_temperature;BMP_pressure;BME280_temperature;BME280_humidity;BME280_pressure;Samples;Min_cycle;Max_cycle;Signal;HPM_P1;HPM_P2
2022/08/24 00:01:26;;;;;;;2.83;0.57;;;;;;;17.68;100.00;99706.66;7389587;19;20080;-57
2022/08/24 00:03:56;;;;;;;0.85;0.40;;;;;;;17.70;100.00;99701.28;7389711;19;20014;-57
2022/08/24 00:06:24;;;;;;;0.75;0.20;;;;;;;17.69;100.00;99691.31;7392286;19;20021;-57
2022/08/24 00:08:52;;;;;;;1.25;0.10;;;;;;;17.73;100.00;99688.97;7389159;19;20011;-57
2022/08/24 00:11:18;;;;;;;0.95;0.45;;;;;;;17.75;100.00;99697.63;7388849;19;20014;-57
2022/08/24 00:13:45;;;;;;;0.30;0.10;;;;;;;17.74;100.00;99696.09;7387948;19;20007;-57
2022/08/24 00:16:12;;;;;;;0.35;0.10;;;;;;;17.80;100.00;99688.34;7392705;19;20014;-57
2022/08/24 00:18:39;;;;;;;0.80;0.22;;;;;;;17.87;100.00;99690.56;7389157;19;20014;-57
2022/08/24 00:21:06;;;;;;;0.65;0.10;;;;;;;17.85;100.00;99687.53;7388637;19;20014;-57
2022/08/24 00:23:34;;;;;;;0.93;0.13;;;;;;;17.86;100.00;99686.25;7388199;19;20019;-56
2022/08/24 00:26:01;;;;;;;0.77;0.28;;;;;;;17.87;100.00;99684.16;7390440;19;20123;-56
2022/08/24 00:28:28;;;;;;;2.47;0.32;;;;;;;17.86;100.00;99686.25;7388976;19;20023;-56
2022/08/24 00:30:54;;;;;;;0.80;0.10;;;;;;;17.86;100.00;99674.97;7386678;19;20016;-56
2022/08/24 00:33:20;;;;;;;1.15;0.60;;;;;;;17.87;100.00;99670.84;7386600;19;20018;-56
2022/08/24 00:35:47;;;;;;;3.60;0.65;;;;;;;17.89;100.00;99673.91;7389288;19;20006;-57
2022/08/24 00:38:13;;;;;;;1.17;0.43;;;;;;;17.86;100.00;99679.84;7394308;19;20018;-56
2022/08/24 00:40:46;;;;;;;1.40;0.17;;;;;;;17.82;100.00;99671.66;7394245;19;20025;-56
2022/08/24 00:43:12;;;;;;;0.85;0.22;;;;;;;17.83;100.00;99675.25;7395538;19;20478;-56
2022/08/24 00:46:11;;;;;;;1.30;0.20;;;;;;;17.88;100.00;99672.38;7396208;19;20010;-56
2022/08/24 00:48:41;;;;;;;0.85;0.22;;;;;;;17.86;100.00;99657.31;7395789;19;20018;-57
2022/08/24 00:51:34;;;;;;;0.35;0.20;;;;;;;17.85;100.00;99662.16;7395678;19;20019;-57
2022/08/24 00:54:06;;;;;;;1.45;0.20;;;;;;;17.88;100.00;99658.31;7393345;19;20086;-57
2022/08/24 00:56:44;;;;;;;0.80;0.00;;;;;;;17.89;100.00;99661.84;7399340;19;20380;-57
2022/08/24 00:59:15;;;;;;;2.28;0.30;;;;;;;17.86;100.00;99654.50;7395454;19;20018;-57
2022/08/24 01:01:43;;;;;;;2.05;0.60;;;;;;;17.89;100.00;99656.22;7395454;19;20030;-57
2022/08/24 01:04:17;;;;;;;1.40;0.10;;;;;;;17.89;100.00;99657.00;7393837;19;20015;-57
2022/08/24 01:06:44;;;;;;;1.25;0.35;;;;;;;17.92;100.00;99661.59;7398433;19;20362;-57
2022/08/24 01:09:10;;;;;;;7.60;0.77;;;;;;;17.93;100.00;99660.28;7393234;19;20018;-57
2022/08/24 01:11:36;;;;;;;1.35;0.30;;;;;;;17.94;100.00;99656.19;7392925;19;20018;-57
2022/08/24 01:14:04;;;;;;;0.50;0.15;;;;;;;17.93;100.00;99649.00;7391679;19;20523;-57
2022/08/24 01:19:24;;;;;;;10.38;0.40;;;;;;;17.99;100.00;99644.09;7392094;19;20010;-57
2022/08/24 01:22:25;;;;;;;3.92;0.50;;;;;;;17.97;100.00;99643.84;7393583;19;20776;-57
2022/08/24 01:24:52;;;;;;;7.22;0.32;;;;;;;17.96;100.00;99633.88;7392987;19;20019;-57
2022/08/24 01:27:18;;;;;;;1.67;0.30;;;;;;;17.97;100.00;99629.75;7395075;19;20022;-57
2022/08/24 01:29:45;;;;;;;1.20;0.32;;;;;;;17.97;100.00;99641.03;7394376;19;20014;-57
2022/08/24 01:32:13;;;;;;;0.55;0.17;;;;;;;17.97;100.00;99646.66;7393508;19;20018;-57
2022/08/24 01:34:39;;;;;;;1.40;0.35;;;;;;;18.00;100.00;99642.00;7395966;19;20015;-57
2022/08/24 01:37:08;;;;;;;1.23;0.20;;;;;;;17.98;100.00;99648.19;7398428;19;20014;-57
2022/08/24 01:39:39;;;;;;;0.98;0.20;;;;;;;17.96;100.00;99636.69;7392088;19;20019;-58
2022/08/24 01:42:06;;;;;;;0.68;0.47;;;;;;;17.93;100.00;99645.44;7392855;19;20018;-57
2022/08/24 01:44:35;;;;;;;1.73;0.73;;;;;;;17.95;100.00;99635.16;7392117;19;20032;-57
2022/08/24 01:47:03;;;;;;;0.55;0.22;;;;;;;17.98;100.00;99636.91;7395916;19;20118;-57
2022/08/24 01:49:34;;;;;;;1.13;0.25;;;;;;;17.92;100.00;99636.22;7390152;19;20498;-57
2022/08/24 01:52:01;;;;;;;4.18;0.47;;;;;;;17.94;100.00;99644.13;7391945;19;20038;-57
2022/08/24 01:54:27;;;;;;;0.77;0.30;;;;;;;17.93;100.00;99634.19;7393708;19;20015;-56
2022/08/24 01:56:54;;;;;;;2.00;0.20;;;;;;;17.93;100.00;99629.28;7396360;19;20019;-56
2022/08/24 01:59:20;;;;;;;2.35;0.55;;;;;;;17.93;100.00;99629.28;7391180;19;20015;-56
2022/08/24 02:01:52;;;;;;;1.35;0.30;;;;;;;17.90;100.00;99641.63;7392139;19;20011;-56
2022/08/24 02:04:19;;;;;;;0.13;0.10;;;;;;;17.88;100.00;99638.59;7394130;19;20027;-57
2022/08/24 02:06:47;;;;;;;5.93;0.38;;;;;;;17.94;100.00;99647.72;7396108;19;20011;-57
2022/08/24 02:09:15;;;;;;;0.50;0.30;;;;;;;18.17;100.00;99646.13;7391412;19;20128;-57
2022/08/24 02:11:42;;;;;;;1.70;0.30;;;;;;;18.42;100.00;99637.59;7391986;19;20506;-56
2022/08/24 02:14:12;;;;;;;0.32;0.30;;;;;;;18.14;100.00;99633.13;7388813;19;20086;-57
2022/08/24 02:16:38;;;;;;;2.03;0.40;;;;;;;18.12;100.00;99629.31;7394875;19;20022;-56
2022/08/24 02:19:05;;;;;;;2.17;0.70;;;;;;;18.13;100.00;99631.59;7392675;19;20006;-57
2022/08/24 02:21:31;;;;;;;0.55;0.20;;;;;;;18.12;100.00;99621.63;7390612;19;20039;-56
2022/08/24 02:23:57;;;;;;;0.28;0.10;;;;;;;18.15;100.00;99617.72;7392141;19;20014;-57
2022/08/24 02:26:24;;;;;;;2.83;0.15;;;;;;;18.18;100.00;99615.91;7392061;19;20014;-57
2022/08/24 02:28:50;;;;;;;0.52;0.13;;;;;;;18.12;100.00;99618.03;7390418;19;20018;-57
2022/08/24 02:31:17;;;;;;;0.63;0.20;;;;;;;18.21;100.00;99614.06;7392616;19;20018;-57
2022/08/24 02:33:44;;;;;;;1.70;0.20;;;;;;;18.40;100.00;99609.16;7390239;19;20019;-57
2022/08/24 02:36:11;;;;;;;4.45;0.60;;;;;;;18.31;100.00;99615.19;7393915;19;20038;-57
2022/08/24 02:38:38;;;;;;;0.63;0.20;;;;;;;18.24;100.00;99610.94;7390489;19;20360;-57
2022/08/24 02:41:10;;;;;;;1.00;0.30;;;;;;;18.39;100.00;99602.75;7389361;19;20015;-58
2022/08/24 02:43:37;;;;;;;1.02;0.70;;;;;;;18.52;100.00;99602.06;7389559;19;20010;-57
2022/08/24 02:46:04;;;;;;;0.95;0.25;;;;;;;18.54;100.00;99599.47;7393149;19;20638;-57
2022/08/24 02:48:30;;;;;;;0.50;0.17;;;;;;;18.59;100.00;99598.63;7390558;19;20014;-57
2022/08/24 02:50:56;;;;;;;1.10;0.40;;;;;;;18.60;100.00;99600.91;7389822;19;20464;-57
2022/08/24 02:53:23;;;;;;;1.38;0.52;;;;;;;18.61;100.00;99596.03;7388927;19;20027;-57
2022/08/24 02:55:49;;;;;;;0.22;0.13;;;;;;;18.74;100.00;99598.91;7396176;19;20036;-56
2022/08/24 02:58:17;;;;;;;1.15;0.38;;;;;;;18.79;100.00;99592.41;7392785;19;20088;-57
2022/08/24 03:00:46;;;;;;;0.93;0.35;;;;;;;18.95;100.00;99580.06;7390425;19;20098;-57
2022/08/24 03:03:14;;;;;;;0.73;0.17;;;;;;;19.38;100.00;99577.75;7390073;19;20489;-56
2022/08/24 03:05:40;;;;;;;1.95;0.70;;;;;;;20.04;100.00;99557.88;7393775;19;20014;-57
2022/08/24 03:08:07;;;;;;;7.60;0.90;;;;;;;20.31;100.00;99565.75;7389331;19;20010;-57
2022/08/24 03:10:34;;;;;;;1.25;0.32;;;;;;;20.72;100.00;99561.44;7389505;19;20467;-57
2022/08/24 03:13:02;;;;;;;8.82;0.60;;;;;;;20.49;100.00;99555.53;7388118;19;20532;-57
2022/08/24 03:15:29;;;;;;;0.43;0.15;;;;;;;20.46;100.00;99553.84;7392660;19;20495;-56
2022/08/24 03:17:56;;;;;;;4.85;0.95;;;;;;;20.60;100.00;99557.34;7389494;19;20013;-56
2022/08/24 03:20:23;;;;;;;1.08;0.20;;;;;;;21.24;100.00;99551.84;7389330;19;20022;-56
2022/08/24 03:22:50;;;;;;;8.20;0.30;;;;;;;21.65;100.00;99563.81;7389611;19;20014;-56
2022/08/24 03:25:19;;;;;;;1.67;0.60;;;;;;;21.86;100.00;99552.38;7391366;19;20010;-58
2022/08/24 03:27:45;;;;;;;1.50;0.52;;;;;;;21.64;100.00;99561.50;7389337;19;20107;-57
2022/08/24 03:30:14;;;;;;;0.65;0.40;;;;;;;19.65;100.00;99572.84;7390601;19;20516;-57
2022/08/24 03:32:41;;;;;;;0.98;0.45;;;;;;;18.45;100.00;99585.81;7387755;19;20109;-57
2022/08/24 03:35:10;;;;;;;1.20;0.10;;;;;;;19.73;100.00;99578.63;7392716;19;20018;-57
2022/08/24 03:37:36;;;;;;;0.68;0.15;;;;;;;19.23;100.00;99591.59;7390167;19;20022;-57
2022/08/24 03:40:07;;;;;;;1.70;0.60;;;;;;;19.17;100.00;99585.31;7389425;19;20374;-56
2022/08/24 03:42:34;;;;;;;2.72;0.50;;;;;;;19.26;100.00;99582.06;7388274;19;20887;-57
2022/08/24 03:45:00;;;;;;;1.77;0.17;;;;;;;19.34;100.00;99577.31;7390508;19;20610;-57
2022/08/24 03:47:27;;;;;;;3.50;0.70;;;;;;;19.46;100.00;99586.34;7389137;19;20025;-57
2022/08/24 03:49:55;;;;;;;3.22;0.50;;;;;;;19.68;100.00;99578.16;7388195;19;20478;-57
2022/08/24 03:52:21;;;;;;;0.77;0.20;;;;;;;20.00;100.00;99574.41;7387528;19;20088;-57
2022/08/24 03:54:48;;;;;;;1.15;0.13;;;;;;;20.31;100.00;99570.66;7389004;19;20014;-57
2022/08/24 03:57:14;;;;;;;0.98;0.65;;;;;;;20.73;100.00;99568.59;7388902;19;20018;-57
2022/08/24 03:59:40;;;;;;;1.55;0.30;;;;;;;20.71;100.00;99568.38;7387864;19;20023;-57
2022/08/24 04:02:08;;;;;;;1.88;0.40;;;;;;;20.92;100.00;99567.06;7387718;19;20011;-57
2022/08/24 04:04:34;;;;;;;1.35;0.45;;;;;;;21.45;100.00;99566.69;7389116;19;20443;-57
2022/08/24 04:07:01;;;;;;;1.58;0.60;;;;;;;21.38;100.00;99561.75;7392094;19;20070;-57
2022/08/24 04:09:27;;;;;;;0.50;0.30;;;;;;;21.18;100.00;99565.41;7388291;19;20014;-57
2022/08/24 04:11:54;;;;;;;2.17;0.40;;;;;;;21.49;100.00;99556.53;7388772;19;20002;-57
2022/08/24 04:14:23;;;;;;;0.90;0.30;;;;;;;21.68;100.00;99557.00;7391814;19;20341;-57
2022/08/24 04:16:53;;;;;;;1.10;0.65;;;;;;;21.87;100.00;99556.75;7399161;19;20356;-57
2022/08/24 04:19:25;;;;;;;1.45;0.47;;;;;;;21.56;100.00;99555.06;7396602;19;20507;-57
2022/08/24 04:21:52;;;;;;;6.93;0.77;;;;;;;21.33;100.00;99559.84;7395634;19;20015;-57
2022/08/24 04:24:19;;;;;;;0.93;0.30;;;;;;;21.64;100.00;99555.84;7395302;19;20605;-57
2022/08/24 04:26:46;;;;;;;2.70;0.40;;;;;;;21.91;100.00;99562.03;7398979;19;20090;-57
2022/08/24 04:29:18;;;;;;;1.20;0.30;;;;;;;22.06;100.00;99557.19;7393339;19;20011;-57
2022/08/24 04:31:52;;;;;;;0.63;0.20;;;;;;;22.36;100.00;99554.44;7394953;19;20414;-57
2022/08/24 04:34:18;;;;;;;5.43;0.80;;;;;;;22.41;100.00;99559.19;7394475;19;20014;-57
2022/08/24 04:36:45;;;;;;;5.13;0.68;;;;;;;19.82;100.00;99561.94;7398636;19;20497;-56
2022/08/24 04:39:13;;;;;;;2.30;0.80;;;;;;;21.01;100.00;99563.75;7394324;19;20096;-57
2022/08/24 04:41:56;;;;;;;13.35;0.75;;;;;;;21.08;100.00;99554.56;7396269;19;20017;-57
2022/08/24 04:44:23;;;;;;;3.67;0.40;;;;;;;20.89;100.00;99561.75;7394133;19;20014;-57
2022/08/24 04:46:49;;;;;;;3.35;0.93;;;;;;;20.73;100.00;99560.88;7398582;19;20014;-57
2022/08/24 04:49:15;;;;;;;0.90;0.20;;;;;;;19.62;100.00;99574.69;7393772;19;20028;-57
2022/08/24 04:51:43;;;;;;;1.65;0.47;;;;;;;20.65;100.00;99565.72;7394619;19;20421;-57
2022/08/24 04:54:09;;;;;;;3.05;0.52;;;;;;;20.71;100.00;99557.84;7393021;19;20463;-57
2022/08/24 04:56:37;;;;;;;1.27;0.32;;;;;;;20.79;100.00;99564.31;7398705;19;20018;-57
2022/08/24 04:59:04;;;;;;;2.25;0.57;;;;;;;21.34;100.00;99556.44;7394310;19;20512;-57
2022/08/24 05:01:32;;;;;;;1.45;0.63;;;;;;;20.96;100.00;99567.47;7394488;19;20460;-57
2022/08/24 05:03:58;;;;;;;6.03;2.00;;;;;;;21.07;100.00;99572.88;7395297;19;20639;-56
2022/08/24 05:06:27;;;;;;;1.00;0.20;;;;;;;21.13;100.00;99562.16;7396603;19;20014;-57
2022/08/24 05:08:55;;;;;;;0.55;0.40;;;;;;;21.03;100.00;99558.31;7392306;19;20341;-56
2022/08/24 05:11:22;;;;;;;5.20;0.60;;;;;;;21.79;100.00;99561.56;7392921;19;20018;-56
2022/08/24 05:13:54;;;;;;;0.40;0.10;;;;;;;22.00;100.00;99550.16;7391382;19;20083;-56
2022/08/24 05:16:22;;;;;;;1.90;0.22;;;;;;;22.18;100.00;99558.34;7397092;19;20015;-57
2022/08/24 05:18:49;;;;;;;2.58;0.40;;;;;;;21.44;100.00;99559.53;7392228;19;20077;-56
2022/08/24 05:21:19;;;;;;;0.90;0.40;;;;;;;21.29;100.00;99565.09;7392840;19;20110;-56
2022/08/24 05:23:46;;;;;;;3.95;1.60;;;;;;;21.26;100.00;99566.22;7391900;19;20010;-57
2022/08/24 05:26:15;;;;;;;0.43;0.13;;;;;;;21.62;100.00;99569.81;7396098;19;20011;-57
2022/08/24 05:28:43;;;;;;;1.30;0.20;;;;;;;21.49;100.00;99567.09;7392201;19;20463;-57
2022/08/24 05:31:20;;;;;;;1.25;0.30;;;;;;;21.10;100.00;99577.44;7392815;19;20015;-57
2022/08/24 05:33:47;;;;;;;1.73;0.40;;;;;;;21.34;100.00;99578.34;7391801;19;20010;-57
2022/08/24 05:36:24;;;;;;;0.85;0.15;;;;;;;21.45;100.00;99578.03;7395609;19;20563;-57
2022/08/24 05:38:52;;;;;;;2.05;0.15;;;;;;;21.44;100.00;99582.94;7392537;19;20014;-57
2022/08/24 05:41:19;;;;;;;1.02;0.38;;;;;;;22.05;100.00;99583.25;7392569;19;20014;-57
2022/08/24 05:43:52;;;;;;;0.13;0.10;;;;;;;21.90;100.00;99583.97;7391835;19;20028;-57
2022/08/24 05:46:19;;;;;;;0.50;0.30;;;;;;;21.59;100.00;99593.63;7395298;19;20014;-57
2022/08/24 05:48:46;;;;;;;1.30;0.40;;;;;;;21.45;100.00;99589.38;7391681;19;20010;-57
2022/08/24 05:51:41;;;;;;;1.48;0.15;;;;;;;21.66;100.00;99587.22;7393077;19;20011;-57
2022/08/24 05:54:10;;;;;;;1.05;0.40;;;;;;;21.65;100.00;99592.16;7395267;19;20003;-57
2022/08/24 05:56:48;;;;;;;1.75;0.35;;;;;;;22.59;100.00;99594.22;7400636;19;20030;-57
2022/08/24 05:59:16;;;;;;;0.98;0.30;;;;;;;23.07;100.00;99592.34;7392208;19;20010;-57
2022/08/24 06:01:43;;;;;;;0.35;0.10;;;;;;;22.63;100.00;99586.84;7394453;19;20006;-57
2022/08/24 06:04:09;;;;;;;12.80;0.20;;;;;;;23.03;100.00;99586.31;7394021;19;20016;-57
2022/08/24 06:06:36;;;;;;;1.23;0.47;;;;;;;23.42;100.00;99582.13;7394495;19;20006;-57
2022/08/24 06:09:03;;;;;;;0.20;0.00;;;;;;;23.25;100.00;99582.69;7392204;19;20553;-57
2022/08/24 06:11:36;;;;;;;0.70;0.30;;;;;;;23.54;100.00;99591.78;7391308;19;20729;-56
2022/08/24 06:14:22;;;;;;;0.82;0.30;;;;;;;23.82;100.00;99586.53;7389984;19;20740;-57
2022/08/24 06:16:55;;;;;;;0.32;0.10;;;;;;;24.09;100.00;99590.47;7395861;19;20484;-56
2022/08/24 06:19:21;;;;;;;0.17;0.10;;;;;;;24.25;100.00;99588.31;7392465;19;20027;-57
2022/08/24 06:21:50;;;;;;;0.10;0.10;;;;;;;24.44;100.00;99590.66;7391056;19;20014;-57
2022/08/24 06:27:19;;;;;;;0.90;0.10;;;;;;;24.57;100.00;99590.38;7392857;19;20039;-57
2022/08/24 06:27:20;;;;;;;0.47;0.10;;;;;;;24.70;100.00;99587.25;7394863;19;20010;-56
2022/08/24 06:29:48;;;;;;;1.60;0.20;;;;;;;24.70;100.00;99598.66;7391703;19;20074;-56
2022/08/24 06:32:47;;;;;;;0.95;0.65;;;;;;;23.24;100.00;99603.91;7392178;19;20011;-57
2022/08/24 06:35:23;;;;;;;0.40;0.08;;;;;;;22.18;100.00;99609.41;7391238;19;20014;-57
2022/08/24 06:37:49;;;;;;;2.55;0.47;;;;;;;21.96;100.00;99626.34;7396059;19;20011;-57
2022/08/24 06:40:15;;;;;;;0.80;0.40;;;;;;;21.85;100.00;99616.09;7393559;19;20015;-57
2022/08/24 06:42:42;;;;;;;0.50;0.10;;;;;;;21.84;100.00;99625.91;7392639;19;20021;-57
2022/08/24 06:45:21;;;;;;;2.83;0.22;;;;;;;21.81;100.00;99632.66;7394138;19;20033;-57
2022/08/24 06:47:47;;;;;;;0.22;0.00;;;;;;;21.90;100.00;99623.66;7393572;19;20002;-57
2022/08/24 06:50:14;;;;;;;0.20;0.10;;;;;;;21.91;100.00;99619.53;7393175;19;20007;-56
2022/08/24 06:52:40;;;;;;;0.00;0.00;;;;;;;21.97;100.00;99616.50;7392425;19;20006;-57
2022/08/24 06:55:06;;;;;;;0.20;0.10;;;;;;;22.24;100.00;99610.00;7393087;19;20460;-57
2022/08/24 06:57:33;;;;;;;0.90;0.20;;;;;;;22.23;100.00;99617.00;7392784;19;20084;-57
2022/08/24 06:59:59;;;;;;;0.80;0.00;;;;;;;22.35;100.00;99618.16;7394775;19;20007;-58
2022/08/24 07:02:25;;;;;;;1.40;0.25;;;;;;;22.55;100.00;99613.69;7393556;19;20015;-57
2022/08/24 07:04:52;;;;;;;0.95;0.20;;;;;;;22.28;100.00;99618.91;7392916;19;20007;-57
2022/08/24 07:07:37;;;;;;;0.52;0.15;;;;;;;22.02;100.00;99629.78;7395534;19;20615;-57
2022/08/24 07:10:07;;;;;;;0.85;0.50;;;;;;;22.05;100.00;99635.06;7392718;19;20368;-56
2022/08/24 07:12:35;;;;;;;0.52;0.30;;;;;;;22.10;100.00;99637.00;7392138;19;20052;-56
2022/08/24 07:15:03;;;;;;;0.30;0.10;;;;;;;22.06;100.00;99641.50;7391916;19;20464;-56
2022/08/24 07:17:29;;;;;;;0.77;0.05;;;;;;;22.29;100.00;99631.78;7393457;19;20011;-56
2022/08/24 07:19:55;;;;;;;0.25;0.10;;;;;;;22.67;100.00;99648.19;7390712;19;20451;-56
2022/08/24 07:22:42;;;;;;;1.40;0.13;;;;;;;23.21;100.00;99642.00;7393330;19;20023;-56
2022/08/24 07:25:10;;;;;;;1.00;0.22;;;;;;;23.63;100.00;99651.63;7392493;19;20667;-56
2022/08/24 07:27:36;;;;;;;0.85;0.20;;;;;;;23.94;100.00;99650.25;7392005;19;20007;-57
2022/08/24 07:30:03;;;;;;;0.00;0.00;;;;;;;24.41;100.00;99655.19;7391518;19;20033;-57
2022/08/24 07:32:29;;;;;;;0.60;0.20;;;;;;;24.20;100.00;99668.19;7391828;19;20511;-57
2022/08/24 07:34:55;;;;;;;0.10;0.10;;;;;;;24.72;100.00;99672.88;7392583;19;20007;-57
2022/08/24 07:37:21;;;;;;;0.63;0.22;;;;;;;25.01;100.00;99674.06;7390581;19;20686;-57
2022/08/24 07:39:49;;;;;;;0.10;0.00;;;;;;;25.30;100.00;99680.84;7390845;19;20006;-56
2022/08/24 07:42:17;;;;;;;0.10;0.10;;;;;;;25.28;100.00;99683.53;7390529;19;20017;-57
2022/08/24 07:44:44;;;;;;;0.17;0.08;;;;;;;23.90;100.00;99681.16;7391749;19;20011;-57
2022/08/24 07:47:11;;;;;;;0.47;0.20;;;;;;;22.97;100.00;99688.00;7389395;19;20010;-57
2022/08/24 07:49:39;;;;;;;0.00;0.00;;;;;;;22.90;100.00;99688.72;7391573;19;20448;-57
2022/08/24 07:52:05;;;;;;;0.00;0.00;;;;;;;23.43;100.00;99688.81;7391763;19;20007;-57
2022/08/24 07:54:32;;;;;;;0.05;0.00;;;;;;;22.87;100.00;99701.97;7388733;19;20014;-57
2022/08/24 07:57:02;;;;;;;0.30;0.00;;;;;;;21.32;100.00;99716.94;7390807;19;20608;-57
2022/08/24 07:59:29;;;;;;;0.00;0.00;;;;;;;22.08;100.00;99713.38;7390539;19;20090;-57
2022/08/24 08:01:57;;;;;;;0.00;0.00;;;;;;;21.98;100.00;99720.91;7391936;19;20022;-57
2022/08/24 08:04:24;;;;;;;0.00;0.00;;;;;;;23.59;100.00;99708.13;7390677;19;20010;-57
2022/08/24 08:06:52;;;;;;;0.15;0.00;;;;;;;23.90;100.00;99717.38;7391578;19;20510;-57
2022/08/24 08:09:18;;;;;;;0.17;0.10;;;;;;;23.99;100.00;99714.72;7390271;19;20022;-57
2022/08/24 08:11:45;;;;;;;0.10;0.00;;;;;;;24.03;100.00;99720.78;7387600;19;20018;-57
2022/08/24 08:14:13;;;;;;;0.00;0.00;;;;;;;24.32;100.00;99714.84;7386261;19;20044;-57
2022/08/24 08:16:40;;;;;;;0.05;0.00;;;;;;;24.54;100.00;99722.50;7392670;19;20014;-57
2022/08/24 08:19:06;;;;;;;0.10;0.00;;;;;;;24.65;100.00;99724.94;7387828;19;20014;-57
2022/08/24 08:24:18;;;;;;;0.13;0.05;;;;;;;24.80;100.00;99733.44;7387264;19;20015;-58
2022/08/24 08:26:53;;;;;;;0.10;0.10;;;;;;;24.85;100.00;99738.16;7390944;19;20035;-57
2022/08/24 08:29:35;;;;;;;0.00;0.00;;;;;;;24.79;100.00;99746.19;7387561;19;20426;-57
2022/08/24 08:32:02;;;;;;;0.10;0.00;;;;;;;24.77;100.00;99743.91;7390629;19;20006;-57
2022/08/24 08:34:30;;;;;;;0.28;0.08;;;;;;;24.96;100.00;99749.13;7387839;19;20023;-57
2022/08/24 08:36:56;;;;;;;3.13;0.10;;;;;;;24.85;100.00;99749.56;7391758;19;20474;-57
2022/08/24 08:39:24;;;;;;;0.00;0.00;;;;;;;24.90;100.00;99739.28;7386566;19;20038;-57
2022/08/24 08:42:00;;;;;;;0.00;0.00;;;;;;;24.93;100.00;99755.97;7386433;19;20031;-57
2022/08/24 08:44:38;;;;;;;0.05;0.00;;;;;;;25.05;100.00;99757.06;7386872;19;20033;-57
2022/08/24 08:47:42;;;;;;;0.00;0.00;;;;;;;25.08;100.00;99750.19;7390762;19;20015;-57
2022/08/24 08:50:22;;;;;;;0.55;0.10;;;;;;;25.25;100.00;99761.66;7384324;19;20129;-57
2022/08/24 08:52:56;;;;;;;;;;;;;;;25.26;100.00;99757.50;7387812;19;20035;-57
2022/08/24 08:55:29;;;;;;;0.00;0.00;;;;;;;25.15;100.00;99765.72;7389709;19;20349;-57
2022/08/24 08:58:14;;;;;;;0.00;0.00;;;;;;;25.11;100.00;99763.28;7387983;19;20474;-57
2022/08/24 09:01:14;;;;;;;0.00;0.00;;;;;;;25.20;100.00;99753.34;7392407;19;20015;-57
2022/08/24 09:04:18;;;;;;;0.00;0.00;;;;;;;25.26;100.00;99757.50;7391748;19;20035;-57
2022/08/24 09:07:09;;;;;;;0.10;0.10;;;;;;;25.39;100.00;99748.66;7396469;19;20015;-57
2022/08/24 09:09:51;;;;;;;0.50;0.10;;;;;;;25.74;100.00;99760.19;7390411;19;20011;-57
2022/08/24 09:12:51;;;;;;;0.22;0.00;;;;;;;25.85;100.00;99759.72;7391349;19;20019;-57
2022/08/24 09:15:59;;;;;;;0.00;0.00;;;;;;;25.58;100.00;99758.81;7393814;19;20011;-57
2022/08/24 09:18:53;;;;;;;0.15;0.10;;;;;;;25.42;100.00;99767.50;7391105;19;20033;-58
2022/08/24 09:21:44;;;;;;;0.43;0.10;;;;;;;25.28;100.00;99768.31;7390446;19;20041;-57
2022/08/24 09:24:36;;;;;;;0.08;0.05;;;;;;;25.31;100.00;99759.38;7392089;19;20006;-57
2022/08/24 09:27:51;;;;;;;0.10;0.00;;;;;;;25.36;100.00;99764.06;7390084;19;20035;-57
2022/08/24 09:30:22;;;;;;;0.00;0.00;;;;;;;25.50;100.00;99771.03;7391902;19;20011;-57
2022/08/24 09:33:02;;;;;;;0.20;0.00;;;;;;;25.62;100.00;99768.47;7396210;19;20018;-57
2022/08/24 09:35:31;;;;;;;0.40;0.10;;;;;;;25.46;100.00;99773.53;7398655;19;20346;-57
2022/08/24 09:38:03;;;;;;;0.08;0.05;;;;;;;25.35;100.00;99773.97;7395041;19;20015;-57
2022/08/24 09:40:36;;;;;;;0.00;0.00;;;;;;;25.58;100.00;99774.56;7395226;19;20021;-57
2022/08/24 09:43:23;;;;;;;0.00;0.00;;;;;;;25.75;100.00;99775.97;7394251;19;20379;-57
2022/08/24 09:46:17;;;;;;;0.00;0.00;;;;;;;25.84;100.00;99769.59;7395822;19;20007;-58
2022/08/24 09:49:15;;;;;;;0.13;0.00;;;;;;;26.10;100.00;99778.34;7393975;19;20018;-57
2022/08/24 09:51:59;;;;;;;0.10;0.10;;;;;;;26.44;100.00;99774.75;7393380;19;20010;-57
2022/08/24 09:54:43;;;;;;;0.10;0.03;;;;;;;26.51;100.00;99776.00;7391960;19;20011;-58
2022/08/24 09:57:39;;;;;;;0.80;0.00;;;;;;;26.40;100.00;99779.38;7393485;19;20014;-58
2022/08/24 10:00:17;;;;;;;0.40;0.00;;;;;;;26.10;100.00;99783.28;7393023;19;20011;-57
2022/08/24 10:02:43;;;;;;;0.00;0.00;;;;;;;25.98;100.00;99782.22;7394854;19;20018;-57
2022/08/24 10:05:33;;;;;;;0.93;0.00;;;;;;;25.97;100.00;99783.56;7394850;19;20027;-57
2022/08/24 10:08:30;;;;;;;0.00;0.00;;;;;;;26.12;100.00;99766.31;7392729;19;20040;-58
2022/08/24 10:11:15;;;;;;;0.00;0.00;;;;;;;25.93;100.00;99777.50;7390961;19;20497;-57
2022/08/24 10:13:54;;;;;;;0.10;0.00;;;;;;;26.42;100.00;99776.69;7392432;19;20073;-57
2022/08/24 10:16:32;;;;;;;0.85;0.00;;;;;;;26.61;100.00;99783.31;7396951;19;20011;-57
2022/08/24 10:19:28;;;;;;;0.10;0.08;;;;;;;26.63;100.00;99777.00;7392566;19;20011;-57
2022/08/24 10:22:16;;;;;;;0.20;0.00;;;;;;;26.50;100.00;99780.19;7392827;19;20010;-57
2022/08/24 10:25:08;;;;;;;0.10;0.00;;;;;;;25.72;100.00;99777.13;7391969;19;20021;-58
2022/08/24 10:27:52;;;;;;;0.50;0.43;;;;;;;26.21;100.00;99777.06;7392512;19;20017;-57
2022/08/24 10:30:56;;;;;;;0.00;0.00;;;;;;;26.42;100.00;99771.72;7393396;19;20011;-57
2022/08/24 10:33:27;;;;;;;0.00;0.00;;;;;;;26.89;100.00;99782.03;7392006;19;20022;-58
2022/08/24 10:36:22;;;;;;;0.20;0.10;;;;;;;27.22;100.00;99776.81;7394586;19;20013;-57
2022/08/24 10:43:32;;;;;;;0.10;0.00;;;;;;;27.15;100.00;99794.84;7391351;19;20471;-57
2022/08/24 10:45:35;;;;;;;0.00;0.00;;;;;;;27.25;100.00;99801.34;7393088;19;20481;-57
2022/08/24 10:48:11;;;;;;;0.45;0.13;;;;;;;27.16;100.00;99804.94;7392318;19;20044;-58
2022/08/24 10:51:08;;;;;;;0.10;0.08;;;;;;;27.24;100.00;99800.63;7391869;19;20357;-58
2022/08/24 10:53:35;;;;;;;0.00;0.00;;;;;;;27.45;100.00;99791.56;7390953;19;20027;-57
2022/08/24 10:56:15;;;;;;;0.15;0.15;;;;;;;27.45;100.00;99785.84;7394522;19;20010;-57
2022/08/24 10:59:03;;;;;;;0.00;0.00;;;;;;;27.55;100.00;99781.66;7392033;19;20014;-58
2022/08/24 11:01:30;;;;;;;0.03;0.00;;;;;;;27.77;100.00;99788.38;7392904;19;20485;-57
2022/08/24 11:04:09;;;;;;;0.20;0.05;;;;;;;27.94;100.00;99790.41;7393171;19;20101;-57
2022/08/24 11:06:39;;;;;;;0.65;0.20;;;;;;;27.90;100.00;99790.81;7394721;19;20082;-58
2022/08/24 11:09:09;;;;;;;0.80;0.17;;;;;;;28.10;100.00;99795.28;7391374;19;20460;-58
2022/08/24 11:11:43;;;;;;;0.00;0.00;;;;;;;28.05;100.00;99801.28;7391112;19;20232;-57
2022/08/24 11:14:15;;;;;;;0.90;0.20;;;;;;;27.93;100.00;99801.09;7388916;19;20021;-58
2022/08/24 11:16:44;;;;;;;0.32;0.10;;;;;;;27.95;100.00;99815.56;7395181;19;20018;-58
2022/08/24 11:19:30;;;;;;;2.08;0.00;;;;;;;28.18;100.00;99809.44;7390507;19;20098;-57
2022/08/24 11:22:31;;;;;;;0.43;0.20;;;;;;;28.21;100.00;99814.75;7389850;19;20475;-57
2022/08/24 11:25:02;;;;;;;0.35;0.00;;;;;;;28.02;100.00;99803.25;7391643;19;20011;-56
2022/08/24 11:27:46;;;;;;;0.00;0.00;;;;;;;28.44;100.00;99802.84;7391007;19;20011;-58
2022/08/24 11:30:18;;;;;;;0.00;0.00;;;;;;;27.98;100.00;99802.91;7391033;19;20505;-57
2022/08/24 11:32:55;;;;;;;0.10;0.00;;;;;;;28.14;100.00;99798.44;7394328;19;20035;-58
2022/08/24 11:35:32;;;;;;;0.00;0.00;;;;;;;28.08;100.00;99800.09;7392951;19;20018;-57
2022/08/24 11:38:14;;;;;;;0.00;0.00;;;;;;;27.74;100.00;99787.47;7391072;19;20035;-58
2022/08/24 11:40:48;;;;;;;0.08;0.00;;;;;;;28.10;100.00;99785.94;7391646;19;20014;-57
2022/08/24 11:43:36;;;;;;;0.20;0.10;;;;;;;28.34;100.00;99774.22;7390172;19;20010;-57
2022/08/24 11:46:52;;;;;;;0.65;0.00;;;;;;;28.41;100.00;99778.28;7392538;19;20035;-57
2022/08/24 11:49:48;;;;;;;0.00;0.00;;;;;;;28.44;100.00;99780.69;7388285;19;20011;-57
2022/08/24 11:52:37;;;;;;;0.00;0.00;;;;;;;24.38;100.00;99793.00;7387685;19;20021;-57
2022/08/24 11:55:11;;;;;;;0.10;0.00;;;;;;;23.31;100.00;99802.06;7395113;19;20006;-57
2022/08/24 11:57:42;;;;;;;0.52;0.10;;;;;;;23.46;100.00;99796.44;7391343;19;20108;-56
2022/08/24 12:00:17;;;;;;;0.10;0.00;;;;;;;23.51;100.00;99795.50;7390826;19;20014;-57